Time;durP1;ratioP1;P1;durP2;ratioP2;P2;SDS_P1;SDS_P2;PMS_P1;PMS_P2;Temp;Humidity;BMP_temperature;BMP_pressure;BME280_temperature;BME280_humidity;BME280_pressure;Samples;Min_cycle;Max_cycle;Signal;HPM_P1;HPM_P2
2023/09/29 00:02:21;;;;;;;4.18;2.78;;;18.70;99.90;;;19.13;100.00;101081.00;5231531;28;20056;-51
2023/09/29 00:04:53;;;;;;;3.58;2.70;;;18.70;99.90;;;19.13;100.00;101082.75;5238176;28;20053;-54
2023/09/29 00:07:25;;;;;;;3.60;2.58;;;18.70;99.90;;;19.12;100.00;101086.28;5228617;28;20045;-51
2023/09/29 00:09:58;;;;;;;4.10;3.25;;;18.70;99.90;;;19.09;100.00;101087.13;5222136;28;20446;-53
2023/09/29 00:12:32;;;;;;;4.25;2.78;;;18.70;99.90;;;19.08;100.00;101084.50;5233765;28;20652;-51
2023/09/29 00:15:06;;;;;;;4.80;3.03;;;18.70;99.90;;;19.06;100.00;101086.25;5221881;28;20059;-52
2023/09/29 00:17:38;;;;;;;4.53;3.28;;;18.70;99.90;;;19.05;100.00;101090.66;5221556;28;20417;-52
2023/09/29 00:20:17;;;;;;;3.72;2.63;;;18.60;99.90;;;19.05;100.00;101098.59;5238210;28;20049;-51
2023/09/29 00:22:52;;;;;;;4.90;3.10;;;18.60;99.90;;;19.04;100.00;101094.19;5217906;28;20071;-49
2023/09/29 00:25:25;;;;;;;4.95;2.70;;;18.60;99.90;;;19.04;100.00;101085.34;5221091;28;20570;-50
2023/09/29 00:27:59;;;;;;;4.35;3.15;;;18.60;99.90;;;19.03;100.00;101081.81;5233831;28;20489;-50
2023/09/29 00:30:31;;;;;;;;;;;18.60;99.90;;;19.03;100.00;101084.47;5222242;28;20056;-51
2023/09/29 00:33:04;;;;;;;4.38;2.88;;;18.60;99.90;;;19.04;100.00;101088.91;5233532;28;19932;-52
2023/09/29 00:35:37;;;;;;;4.03;2.83;;;18.60;99.90;;;19.04;100.00;101090.63;5237983;28;20143;-51
2023/09/29 00:38:09;;;;;;;4.20;2.88;;;18.60;99.90;;;19.02;100.00;101087.97;5233851;28;20045;-52
2023/09/29 00:40:41;;;;;;;5.40;3.28;;;18.60;99.90;;;19.01;100.00;101094.16;5229416;28;20052;-52
2023/09/29 00:43:16;;;;;;;4.40;2.90;;;18.60;99.90;;;19.03;100.00;101083.59;5220873;28;20049;-51
2023/09/29 00:45:49;;;;;;;4.65;2.80;;;18.60;99.90;;;19.03;100.00;101087.09;5229042;28;20057;-51
2023/09/29 00:48:22;;;;;;;4.75;3.05;;;18.60;99.90;;;19.05;100.00;101081.84;5233689;28;20048;-53
2023/09/29 00:50:55;;;;;;;4.93;3.00;;;18.60;99.90;;;19.06;100.00;101079.22;5233831;28;20519;-51
2023/09/29 00:53:28;;;;;;;4.93;3.03;;;18.70;99.90;;;19.06;100.00;101075.69;5229027;28;20049;-50
2023/09/29 00:56:02;;;;;;;4.43;2.65;;;18.70;99.90;;;19.06;100.00;101073.94;5237753;28;20591;-52
2023/09/29 00:58:36;;;;;;;4.13;3.00;;;18.70;99.90;;;19.06;100.00;101081.84;5221060;28;20240;-52
2023/09/29 01:01:11;;;;;;;4.43;2.90;;;18.70;99.90;;;19.06;100.00;101076.56;5232943;28;20041;-51
2023/09/29 01:03:44;;;;;;;5.18;3.10;;;18.70;99.90;;;19.05;100.00;101069.53;5228877;28;20049;-49
2023/09/29 01:06:16;;;;;;;6.22;2.85;;;18.60;99.90;;;19.06;100.00;101075.69;5232519;28;20512;-53
2023/09/29 01:08:49;;;;;;;4.10;3.10;;;18.70;99.90;;;19.07;100.00;101080.09;5234003;28;20445;-50
2023/09/29 01:11:21;;;;;;;4.22;2.53;;;18.60;99.90;;;19.06;100.00;101065.13;5233447;28;20508;-51
2023/09/29 01:13:56;;;;;;;4.10;2.63;;;18.70;99.90;;;19.06;100.00;101066.00;5237860;28;20053;-51
2023/09/29 01:16:32;;;;;;;4.53;2.53;;;18.70;99.90;;;19.08;100.00;101064.25;5221614;28;20052;-52
2023/09/29 01:19:05;;;;;;;4.15;2.42;;;18.70;99.90;;;19.10;100.00;101067.75;5229615;28;20045;-50
2023/09/29 01:21:37;;;;;;;3.25;2.70;;;18.70;99.90;;;19.13;100.00;101061.63;5224843;28;20746;-51
2023/09/29 01:24:11;;;;;;;3.15;2.40;;;18.80;99.90;;;19.14;100.00;101058.97;5223756;28;20049;-51
2023/09/29 01:26:47;;;;;;;4.57;2.70;;;18.80;99.90;;;19.17;100.00;101053.72;5221429;28;20029;-50
2023/09/29 01:29:19;;;;;;;3.60;2.42;;;18.80;99.90;;;19.18;100.00;101049.31;5219247;28;20072;-52
2023/09/29 01:31:52;;;;;;;5.10;2.55;;;18.80;99.90;;;19.20;100.00;101048.44;5221064;28;20049;-51
2023/09/29 01:34:25;;;;;;;4.05;2.50;;;18.80;99.90;;;19.20;100.00;101051.06;5233631;28;20073;-50
2023/09/29 01:36:59;;;;;;;5.88;2.72;;;18.80;99.90;;;19.23;100.00;101042.25;5226263;28;20044;-52
2023/09/29 01:39:33;;;;;;;3.65;2.40;;;18.90;99.90;;;19.24;100.00;101047.59;5240091;28;20107;-54
2023/09/29 01:42:07;;;;;;;3.13;2.75;;;18.80;99.90;;;19.28;100.00;101047.56;5227332;28;20335;-51
2023/09/29 01:44:43;;;;;;;4.10;2.47;;;18.90;99.90;;;19.29;100.00;101046.69;5237726;28;20126;-53
2023/09/29 01:47:15;;;;;;;4.10;2.63;;;18.90;99.90;;;19.29;100.00;101041.41;5241301;28;20504;-51
2023/09/29 01:49:48;;;;;;;4.05;2.60;;;18.90;99.90;;;19.29;100.00;101044.06;5233899;28;20574;-51
2023/09/29 01:52:22;;;;;;;4.28;2.67;;;18.90;99.90;;;19.32;100.00;101049.38;5224641;28;20585;-51
2023/09/29 01:54:58;;;;;;;3.15;2.33;;;18.90;99.90;;;19.32;100.00;101036.16;5224251;28;20073;-54
2023/09/29 01:57:30;;;;;;;3.63;2.35;;;18.90;99.90;;;19.34;100.00;101031.75;5240901;28;20048;-51
2023/09/29 02:00:05;;;;;;;5.05;2.63;;;18.90;99.90;;;19.33;100.00;101029.97;5226464;28;20052;-51
2023/09/29 02:02:49;;;;;;;2.88;2.10;;;19.00;99.90;;;19.33;100.00;101022.06;5225968;28;20507;-50
2023/09/29 02:05:21;;;;;;;3.22;2.28;;;19.00;99.90;;;19.33;100.00;101029.97;5222565;28;20092;-54
2023/09/29 02:07:54;;;;;;;4.25;2.60;;;19.00;99.90;;;19.35;100.00;101028.22;5234446;28;20041;-51
2023/09/29 02:10:29;;;;;;;3.75;2.53;;;19.00;99.90;;;19.33;100.00;101024.69;5224323;28;20064;-52
2023/09/29 02:13:04;;;;;;;3.22;2.22;;;18.90;99.90;;;19.33;100.00;101027.34;5225511;28;20051;-52
2023/09/29 02:15:36;;;;;;;3.83;2.50;;;18.90;99.90;;;19.33;100.00;101022.06;5237012;28;20052;-51
2023/09/29 02:18:10;;;;;;;3.40;2.42;;;18.90;99.90;;;19.32;100.00;101023.81;5237422;28;20393;-53
2023/09/29 02:20:46;;;;;;;3.53;2.30;;;18.90;99.90;;;19.33;100.00;101022.06;5234282;28;20153;-51
2023/09/29 02:23:19;;;;;;;4.07;2.42;;;18.90;99.90;;;19.33;100.00;101017.63;5235556;28;20079;-51
2023/09/29 02:25:53;;;;;;;2.97;2.13;;;18.90;99.90;;;19.33;100.00;101028.22;5236848;28;20045;-53
2023/09/29 02:28:30;;;;;;;3.22;2.17;;;19.00;99.90;;;19.34;100.00;101018.53;5223879;28;20081;-49
2023/09/29 02:31:03;;;;;;;3.65;2.20;;;18.90;99.90;;;19.33;100.00;101015.00;5217592;28;20588;-51
2023/09/29 02:33:35;;;;;;;3.88;2.50;;;18.90;99.90;;;19.33;100.00;101017.63;5237190;28;20053;-51
2023/09/29 02:36:08;;;;;;;3.30;2.08;;;18.90;99.90;;;19.33;100.00;101014.13;5225313;28;20159;-52
2023/09/29 02:38:40;;;;;;;2.83;1.95;;;18.90;99.90;;;19.31;100.00;101018.53;5223719;28;20053;-51
2023/09/29 02:41:14;;;;;;;3.42;2.30;;;18.90;99.90;;;19.32;100.00;101020.28;5236972;28;20150;-52
2023/09/29 02:43:47;;;;;;;3.15;2.08;;;18.90;99.90;;;19.30;100.00;101019.38;5237061;28;20053;-53
2023/09/29 02:46:20;;;;;;;3.70;2.55;;;18.90;99.90;;;19.25;100.00;101009.69;5221576;28;20098;-50
2023/09/29 02:48:54;;;;;;;;;;;18.90;99.90;;;19.23;100.00;101006.19;5234694;28;20114;-52
2023/09/29 02:51:26;;;;;;;4.05;2.38;;;18.80;99.90;;;19.24;100.00;101000.00;5237155;28;19925;-54
2023/09/29 02:53:59;;;;;;;2.97;2.20;;;18.80;99.90;;;19.24;100.00;100993.84;5237328;28;20547;-51
2023/09/29 02:56:33;;;;;;;2.72;2.22;;;18.80;99.90;;;19.24;100.00;100994.72;5221544;28;20567;-51
2023/09/29 02:59:06;;;;;;;4.40;2.78;;;18.80;99.90;;;19.25;100.00;100998.25;5225455;28;20049;-51
2023/09/29 03:01:38;;;;;;;4.60;3.03;;;18.90;99.90;;;19.24;100.00;100992.09;5223374;28;20143;-51
2023/09/29 03:04:11;;;;;;;4.85;2.97;;;18.90;99.90;;;19.23;100.00;100995.59;5225192;28;20059;-52
2023/09/29 03:06:43;;;;;;;3.35;2.50;;;18.90;99.90;;;19.24;100.00;101002.66;5238092;28;20049;-50
2023/09/29 03:09:18;;;;;;;3.20;2.53;;;18.90;99.90;;;19.25;100.00;101004.41;5223352;28;20056;-50
2023/09/29 03:11:53;;;;;;;3.75;2.65;;;18.90;99.90;;;19.27;100.00;101008.81;5223945;28;20411;-50
2023/09/29 03:14:25;;;;;;;3.67;2.53;;;18.90;99.90;;;19.27;100.00;101008.81;5234074;28;20053;-52
2023/09/29 03:16:58;;;;;;;3.40;2.50;;;18.90;99.90;;;19.25;100.00;100998.25;5234360;28;20634;-52
2023/09/29 03:19:31;;;;;;;3.03;2.35;;;18.90;99.90;;;19.23;100.00;101000.91;5223896;28;20172;-55
2023/09/29 03:22:04;;;;;;;4.72;2.50;;;18.90;99.90;;;19.23;100.00;100997.34;5225089;28;20064;-51
2023/09/29 03:24:37;;;;;;;3.13;2.40;;;18.80;99.90;;;19.21;100.00;100991.19;5236739;28;20063;-51
2023/09/29 03:27:11;;;;;;;4.47;3.10;;;18.90;99.90;;;19.19;100.00;100991.19;5236725;28;20459;-49
2023/09/29 03:29:43;;;;;;;3.88;2.53;;;18.80;99.90;;;19.19;100.00;100987.66;5222568;28;20060;-52
2023/09/29 03:32:16;;;;;;;3.90;2.33;;;18.80;99.90;;;19.19;100.00;100980.63;5236582;28;20056;-52
2023/09/29 03:34:48;;;;;;;4.00;2.60;;;18.80;99.90;;;19.19;100.00;100982.38;5238958;28;20520;-51
2023/09/29 03:37:21;;;;;;;4.13;2.63;;;18.90;99.90;;;19.20;100.00;100985.00;5236524;28;20516;-51
2023/09/29 03:39:54;;;;;;;4.82;2.53;;;18.90;99.90;;;19.20;100.00;100979.72;5222871;28;20048;-53
2023/09/29 03:42:29;;;;;;;5.25;2.67;;;18.80;99.90;;;19.19;100.00;100977.09;5222621;28;20186;-50
2023/09/29 03:45:06;;;;;;;4.90;2.78;;;18.90;99.90;;;19.17;100.00;100974.44;5236551;28;20531;-52
2023/09/29 03:47:39;;;;;;;3.75;2.67;;;18.80;99.90;;;19.17;100.00;100984.09;5201172;28;20055;-52
2023/09/29 03:50:12;;;;;;;4.80;2.88;;;18.90;99.90;;;19.18;100.00;100970.94;5234566;28;20049;-51
2023/09/29 03:52:45;;;;;;;4.70;2.67;;;18.90;99.90;;;19.20;100.00;100973.56;5213439;28;20042;-51
2023/09/29 03:55:18;;;;;;;3.55;2.50;;;18.90;99.90;;;19.22;100.00;100971.78;5236436;28;20052;-50
2023/09/29 03:57:52;;;;;;;5.95;2.90;;;18.90;99.90;;;19.23;100.00;100966.53;5221269;28;20126;-48
2023/09/29 04:00:24;;;;;;;4.00;2.65;;;18.90;99.90;;;19.23;100.00;100966.53;5235036;28;20038;-50
2023/09/29 04:03:01;;;;;;;4.85;2.78;;;18.90;99.90;;;19.24;100.00;100963.00;5222013;28;20045;-52
2023/09/29 04:05:34;;;;;;;4.57;2.72;;;18.90;99.90;;;19.25;100.00;100969.19;5220625;28;20052;-49
2023/09/29 04:08:08;;;;;;;4.63;2.33;;;18.90;99.90;;;19.28;100.00;100976.22;5234243;28;20095;-51
2023/09/29 04:10:41;;;;;;;5.00;2.58;;;18.90;99.90;;;19.30;100.00;100966.53;5217657;28;20111;-50
2023/09/29 04:13:15;;;;;;;3.38;2.38;;;19.00;99.90;;;19.32;100.00;100972.72;5221494;28;20512;-52
2023/09/29 04:15:47;;;;;;;4.78;2.83;;;19.00;99.90;;;19.33;100.00;100975.34;5221404;28;20090;-54
2023/09/29 04:18:20;;;;;;;3.58;2.30;;;19.00;99.90;;;19.34;100.00;100974.47;5221939;28;20047;-52
2023/09/29 04:20:55;;;;;;;2.50;2.00;;;19.00;99.90;;;19.37;100.00;100984.19;5219586;28;20053;-51
2023/09/29 04:23:27;;;;;;;3.45;2.35;;;19.00;99.90;;;19.38;100.00;100985.94;5219919;28;20328;-50
2023/09/29 04:26:00;;;;;;;3.30;2.63;;;19.00;99.90;;;19.40;100.00;100976.25;5237811;28;20408;-54
2023/09/29 04:28:34;;;;;;;3.95;2.20;;;19.00;99.90;;;19.41;100.00;100980.66;5235297;28;20049;-52
2023/09/29 04:31:06;;;;;;;3.58;2.30;;;19.00;99.90;;;19.43;100.00;100960.38;5238252;28;20037;-51
2023/09/29 04:33:39;;;;;;;6.70;2.88;;;19.00;99.90;;;19.41;100.00;100955.09;5222734;28;20052;-53
2023/09/29 04:36:12;;;;;;;5.25;2.95;;;19.10;99.90;;;19.39;100.00;100941.00;5236146;28;20060;-52
2023/09/29 04:38:45;;;;;;;5.68;2.63;;;19.10;99.90;;;19.37;100.00;100942.78;5231628;28;20500;-51
2023/09/29 04:41:18;;;;;;;4.25;2.63;;;19.00;99.90;;;19.35;100.00;100941.88;5232494;28;20094;-51
2023/09/29 04:43:51;;;;;;;7.78;2.92;;;19.00;99.90;;;19.35;100.00;100936.59;5219381;28;20045;-50
2023/09/29 04:46:24;;;;;;;4.20;2.67;;;19.00;99.90;;;19.34;100.00;100939.22;5235954;28;20442;-50
2023/09/29 04:48:58;;;;;;;5.10;2.42;;;19.10;99.90;;;19.31;100.00;100934.84;5234403;28;20094;-50
2023/09/29 04:51:31;;;;;;;5.40;2.50;;;19.00;99.90;;;19.29;100.00;100917.19;5237755;28;20107;-51
2023/09/29 04:54:04;;;;;;;3.85;2.78;;;19.00;99.90;;;19.27;100.00;100918.97;5237742;28;20125;-51
2023/09/29 04:56:37;;;;;;;5.35;2.92;;;19.00;99.90;;;19.25;100.00;100921.59;5222672;28;20060;-51
2023/09/29 04:59:11;;;;;;;4.82;2.95;;;19.00;99.90;;;19.25;100.00;100921.59;5236280;28;20071;-50
2023/09/29 05:01:43;;;;;;;4.07;2.28;;;19.00;99.90;;;19.23;100.00;100926.91;5235970;28;20110;-52
2023/09/29 05:04:16;;;;;;;5.35;2.58;;;19.00;99.90;;;19.27;100.00;100948.03;5224272;28;20534;-51
2023/09/29 05:06:48;;;;;;;3.90;2.85;;;19.00;99.90;;;19.25;100.00;100930.41;5220905;28;20409;-52
2023/09/29 05:09:21;;;;;;;3.58;2.33;;;19.00;99.90;;;19.27;100.00;100932.19;5236374;28;20048;-50
2023/09/29 05:11:53;;;;;;;4.53;2.70;;;19.00;99.90;;;19.28;100.00;100928.66;5222230;28;20072;-53
2023/09/29 05:14:27;;;;;;;4.68;2.58;;;19.00;99.90;;;19.28;100.00;100933.94;5235899;28;20051;-51
2023/09/29 05:17:00;;;;;;;3.47;2.15;;;19.00;99.90;;;19.28;100.00;100928.66;5237299;28;20072;-51
2023/09/29 05:19:32;;;;;;;2.80;2.42;;;19.00;99.90;;;19.29;100.00;100931.28;5221287;28;20044;-50
2023/09/29 05:22:05;;;;;;;3.42;2.30;;;19.00;99.90;;;19.31;100.00;100944.53;5220369;28;20090;-50
2023/09/29 05:24:37;;;;;;;3.55;2.50;;;19.00;99.90;;;19.29;100.00;100940.97;5235946;28;20041;-52
2023/09/29 05:27:09;;;;;;;3.42;2.15;;;19.00;99.90;;;19.29;100.00;100930.41;5234441;28;20099;-50
2023/09/29 05:29:43;;;;;;;3.30;2.17;;;19.00;99.90;;;19.30;100.00;100926.88;5236029;28;20045;-51
2023/09/29 05:32:15;;;;;;;5.72;2.72;;;19.00;99.90;;;19.26;100.00;100939.22;5234977;28;20132;-49
2023/09/29 05:34:48;;;;;;;2.83;2.17;;;18.90;99.90;;;19.27;100.00;100942.75;5218518;28;20534;-51
2023/09/29 05:37:21;;;;;;;3.25;2.25;;;19.00;99.90;;;19.28;100.00;100933.94;5236331;28;20098;-53
2023/09/29 05:39:54;;;;;;;3.90;2.33;;;18.90;99.90;;;19.28;100.00;100936.56;5219446;28;20055;-51
2023/09/29 05:42:26;;;;;;;4.22;2.47;;;18.90;99.90;;;19.29;100.00;100935.69;5216898;28;20068;-51
2023/09/29 05:45:00;;;;;;;3.33;2.10;;;18.90;99.90;;;19.29;100.00;100930.41;5219204;28;20794;-52
2023/09/29 05:47:32;;;;;;;5.13;2.80;;;18.90;99.90;;;19.25;100.00;100925.13;5233858;28;20053;-50
2023/09/29 05:50:06;;;;;;;4.82;2.50;;;18.90;99.90;;;19.23;100.00;100916.34;5220218;28;20037;-49
2023/09/29 05:52:38;;;;;;;6.45;2.92;;;18.90;99.90;;;19.19;100.00;100911.03;5221006;28;20056;-50
2023/09/29 05:55:11;;;;;;;2.78;2.22;;;18.90;99.90;;;19.18;100.00;100904.00;5235807;28;20076;-49
2023/09/29 05:57:43;;;;;;;4.10;2.40;;;18.90;99.90;;;19.18;100.00;100901.34;5215607;28;20044;-52
2023/09/29 06:00:18;;;;;;;3.63;2.15;;;18.90;99.90;;;19.19;100.00;100901.34;5224135;28;20052;-53
2023/09/29 06:02:50;;;;;;;;;;;18.90;99.90;;;19.19;100.00;100909.25;5228151;28;20049;-49
2023/09/29 06:05:26;;;;;;;3.95;2.35;;;18.90;99.90;;;19.20;100.00;100916.31;5231211;28;19920;-50
2023/09/29 06:07:59;;;;;;;5.15;2.83;;;18.90;99.90;;;19.22;100.00;100914.53;5225518;28;20408;-51
2023/09/29 06:10:31;;;;;;;3.70;2.03;;;18.90;99.90;;;19.23;100.00;100911.03;5232426;28;20095;-50
2023/09/29 06:13:04;;;;;;;2.90;2.13;;;18.90;99.90;;;19.26;100.00;100923.38;5217637;28;20104;-52
2023/09/29 06:15:38;;;;;;;3.45;2.20;;;18.90;99.90;;;19.28;100.00;100918.97;5229282;28;20060;-49
2023/09/29 06:18:11;;;;;;;3.00;2.20;;;18.90;99.90;;;19.31;100.00;100924.25;5211334;28;20485;-50
2023/09/29 06:20:43;;;;;;;3.05;2.20;;;19.00;99.90;;;19.35;100.00;100926.00;5211181;28;20547;-52
2023/09/29 06:23:15;;;;;;;3.88;2.33;;;19.00;99.90;;;19.42;100.00;100924.25;5222064;28;20032;-49
2023/09/29 06:25:48;;;;;;;3.05;1.92;;;19.00;99.90;;;19.51;100.00;100917.22;5222106;28;20792;-51
2023/09/29 06:28:20;;;;;;;2.78;2.08;;;19.10;99.90;;;19.63;100.00;100920.78;5239762;28;20124;-52
2023/09/29 06:30:56;;;;;;;3.10;2.35;;;19.20;99.90;;;19.84;100.00;100922.53;5215863;28;20536;-51
2023/09/29 06:33:29;;;;;;;2.75;2.00;;;19.30;99.90;;;20.21;100.00;100913.66;5218153;28;20059;-50
2023/09/29 06:36:02;;;;;;;2.78;2.05;;;19.60;99.90;;;20.30;100.00;100913.59;5233516;28;20496;-52
2023/09/29 06:38:34;;;;;;;3.17;2.10;;;19.70;99.90;;;20.35;100.00;100918.00;5221779;28;20052;-50
2023/09/29 06:41:06;;;;;;;3.17;2.10;;;19.80;99.90;;;20.38;100.00;100912.69;5229654;28;20099;-53
2023/09/29 06:43:39;;;;;;;2.50;1.83;;;19.90;99.90;;;20.43;100.00;100924.16;5220567;28;20063;-53
2023/09/29 06:46:13;;;;;;;3.38;1.88;;;19.90;99.90;;;20.47;100.00;100917.97;5222585;28;20037;-50
2023/09/29 06:48:46;;;;;;;3.95;2.10;;;20.00;99.90;;;20.54;100.00;100909.16;5223154;28;20041;-50
2023/09/29 06:51:21;;;;;;;3.05;1.92;;;20.10;99.90;;;20.58;100.00;100917.06;5222943;28;20103;-53
2023/09/29 06:53:54;;;;;;;3.65;2.33;;;20.10;99.90;;;20.61;100.00;100921.47;5231351;28;20060;-50
2023/09/29 06:56:26;;;;;;;2.83;2.30;;;20.10;99.90;;;20.64;100.00;100920.56;5234265;28;20549;-49
2023/09/29 06:58:59;;;;;;;4.03;2.13;;;20.20;99.90;;;20.69;100.00;100919.66;5239705;28;20056;-50
2023/09/29 07:01:33;;;;;;;3.72;1.83;;;20.20;99.90;;;20.74;100.00;100911.72;5221693;28;20103;-53
2023/09/29 07:04:05;;;;;;;3.45;2.38;;;20.30;99.90;;;20.73;100.00;100918.75;5221302;28;20379;-49
2023/09/29 07:06:38;;;;;;;4.05;2.40;;;20.30;99.90;;;20.74;100.00;100917.88;5238731;28;20041;-51
2023/09/29 07:09:12;;;;;;;3.33;2.00;;;20.30;99.90;;;20.72;100.00;100919.63;5224488;28;20056;-52
2023/09/29 07:11:44;;;;;;;3.03;2.15;;;20.30;99.90;;;20.73;100.00;100924.03;5222530;28;20045;-49
2023/09/29 07:14:17;;;;;;;4.72;1.95;;;20.30;99.90;;;20.73;100.00;100921.38;5223098;28;20049;-51
2023/09/29 07:16:52;;;;;;;3.35;2.05;;;20.30;99.90;;;20.76;100.00;100920.50;5221997;28;20049;-51
2023/09/29 07:19:25;;;;;;;4.28;1.75;;;20.30;99.90;;;20.79;100.00;100916.06;5222609;28;20029;-49
2023/09/29 07:21:57;;;;;;;3.28;2.20;;;20.40;99.90;;;20.80;100.00;100912.56;5222721;28;20049;-50
2023/09/29 07:24:29;;;;;;;3.80;2.20;;;20.40;99.90;;;20.80;100.00;100909.91;5222856;28;20049;-51
2023/09/29 07:27:02;;;;;;;6.75;2.17;;;20.40;99.90;;;20.85;100.00;100915.16;5238914;28;20045;-50
2023/09/29 07:29:35;;;;;;;4.40;2.17;;;20.40;99.90;;;21.04;100.00;100916.81;5237105;28;20051;-50
2023/09/29 07:32:12;;;;;;;3.47;2.20;;;20.50;99.90;;;21.37;100.00;100915.72;5215080;28;20060;-49
2023/09/29 07:34:44;;;;;;;5.03;2.35;;;20.70;99.90;;;21.86;100.00;100915.31;5220699;28;20056;-50
2023/09/29 07:37:16;;;;;;;4.88;2.55;;;21.10;99.90;;;22.38;100.00;100919.22;5222157;28;20280;-49
2023/09/29 07:39:49;;;;;;;4.95;2.40;;;21.50;99.90;;;22.54;100.00;100914.59;5222568;28;20041;-49
2023/09/29 07:42:21;;;;;;;4.03;2.20;;;21.80;99.90;;;22.53;100.00;100928.78;5222591;28;20115;-49
2023/09/29 07:44:53;;;;;;;4.22;2.03;;;21.80;99.90;;;22.54;100.00;100930.53;5236674;28;20056;-49
2023/09/29 07:47:31;;;;;;;6.20;2.38;;;21.90;99.90;;;22.59;100.00;100920.75;5219111;28;20053;-48
2023/09/29 07:50:05;;;;;;;4.18;2.30;;;21.90;99.90;;;22.77;100.00;100922.28;5220953;28;20352;-51
2023/09/29 07:52:38;;;;;;;4.38;2.28;;;22.10;99.90;;;23.10;100.00;100921.84;5223107;28;20040;-51
2023/09/29 07:55:10;;;;;;;4.70;2.40;;;22.30;99.90;;;23.64;100.00;100924.56;5238331;28;20044;-49
2023/09/29 07:57:43;;;;;;;5.10;2.25;;;22.60;99.90;;;24.19;100.00;100930.66;5223349;28;20501;-50
2023/09/29 08:00:16;;;;;;;6.10;2.47;;;23.00;99.90;;;24.48;100.00;100931.00;5236917;28;20303;-50
2023/09/29 08:02:50;;;;;;;3.03;2.03;;;23.40;99.90;;;24.46;100.00;100927.50;5222447;28;20068;-50
2023/09/29 08:05:22;;;;;;;3.60;2.05;;;23.50;99.90;;;24.28;100.00;100922.50;5234804;28;20041;-49
2023/09/29 08:07:55;;;;;;;4.65;2.47;;;23.40;99.90;;;24.09;100.00;100927.31;5239070;28;20064;-50
2023/09/29 08:10:27;;;;;;;3.78;2.28;;;23.30;99.90;;;23.97;100.00;100933.72;5235368;28;20138;-50
2023/09/29 08:13:00;;;;;;;3.72;2.22;;;23.20;99.90;;;23.88;100.00;100928.59;5236356;28;20040;-51
2023/09/29 08:15:35;;;;;;;4.35;2.38;;;23.20;99.90;;;23.82;100.00;100923.38;5220985;28;20044;-54
2023/09/29 08:18:09;;;;;;;3.95;2.47;;;23.10;99.90;;;23.73;100.00;100918.19;5236558;28;20109;-52
2023/09/29 08:20:42;;;;;;;2.88;2.08;;;23.10;99.90;;;23.72;100.00;100927.09;5238772;28;20091;-51
2023/09/29 08:23:17;;;;;;;3.78;2.20;;;23.00;99.90;;;23.74;100.00;100923.50;5219949;28;20508;-52
2023/09/29 08:25:50;;;;;;;3.22;1.77;;;23.10;99.90;;;23.74;100.00;100930.63;5236856;28;20140;-50
2023/09/29 08:28:22;;;;;;;4.18;2.38;;;23.00;99.90;;;23.65;100.00;100928.09;5236188;28;20442;-50
2023/09/29 08:30:55;;;;;;;3.50;2.05;;;23.00;99.90;;;23.55;100.00;100933.56;5235585;28;20187;-52
2023/09/29 08:33:32;;;;;;;2.95;2.25;;;23.00;99.90;;;23.53;100.00;100937.13;5237343;28;20404;-51
2023/09/29 08:36:05;;;;;;;2.92;1.75;;;22.90;99.90;;;23.50;100.00;100942.50;5236759;28;20102;-50
2023/09/29 08:38:37;;;;;;;3.42;1.80;;;22.90;99.90;;;23.47;100.00;100945.19;5237479;28;20083;-52
2023/09/29 08:41:10;;;;;;;2.80;2.00;;;22.90;99.90;;;23.39;100.00;100940.00;5235932;28;20044;-52
2023/09/29 08:43:44;;;;;;;5.22;2.35;;;22.80;99.90;;;23.33;100.00;100942.75;5237128;28;20049;-49
2023/09/29 08:46:18;;;;;;;3.03;1.75;;;22.80;99.90;;;23.25;100.00;100934.03;5219011;28;20041;-50
2023/09/29 08:48:53;;;;;;;3.33;2.03;;;22.70;99.90;;;23.16;100.00;100937.72;5236474;28;20041;-51
2023/09/29 08:51:27;;;;;;;2.75;1.95;;;22.60;99.90;;;23.10;100.00;100939.59;5236410;28;20045;-51
2023/09/29 08:54:00;;;;;;;4.00;2.20;;;22.60;99.90;;;23.07;100.00;100939.59;5216886;28;20499;-50
2023/09/29 08:56:33;;;;;;;3.92;1.95;;;22.50;99.90;;;23.02;100.00;100929.06;5235665;28;20049;-50
2023/09/29 08:59:05;;;;;;;3.70;2.00;;;22.50;99.90;;;23.01;100.00;100917.53;5220235;28;20053;-49
2023/09/29 09:01:38;;;;;;;3.58;2.13;;;22.50;99.90;;;23.04;100.00;100921.94;5222123;28;20037;-53
2023/09/29 09:04:12;;;;;;;3.95;2.10;;;22.50;99.90;;;23.09;100.00;100924.53;5219328;28;20052;-50
2023/09/29 09:06:44;;;;;;;3.70;2.58;;;22.50;99.90;;;23.17;100.00;100925.28;5237209;28;20053;-53
2023/09/29 09:09:23;;;;;;;3.95;2.10;;;22.60;99.90;;;23.23;100.00;100933.19;5237148;28;20569;-52
2023/09/29 09:11:55;;;;;;;3.83;2.55;;;22.60;99.90;;;23.61;100.00;100921.06;5238257;28;20484;-50
2023/09/29 09:14:40;;;;;;;4.20;2.25;;;22.90;99.90;;;24.06;100.00;100925.59;5237168;28;20087;-50
2023/09/29 09:17:12;;;;;;;4.68;2.42;;;23.20;99.90;;;24.39;100.00;100925.88;5219688;28;20150;-50
2023/09/29 09:19:51;;;;;;;4.63;2.00;;;23.60;99.90;;;24.62;100.00;100923.59;5236351;28;20077;-50
2023/09/29 09:22:27;;;;;;;4.60;2.25;;;23.80;99.90;;;24.90;100.00;100928.34;5236755;28;20568;-51
2023/09/29 09:25:00;;;;;;;4.68;2.70;;;24.10;99.90;;;25.26;100.00;100925.78;5235393;28;20423;-50
2023/09/29 09:27:38;;;;;;;2.95;2.15;;;24.40;99.90;;;25.61;100.00;100932.91;5237726;28;20141;-50
2023/09/29 09:30:23;;;;;;;4.80;2.47;;;24.70;99.90;;;25.85;98.92;100928.78;5236439;28;20045;-51
2023/09/29 09:32:55;;;;;;;5.38;2.28;;;25.00;99.90;;;26.06;97.75;100927.34;5235749;28;20081;-53
2023/09/29 09:35:30;;;;;;;3.72;2.20;;;25.20;99.90;;;26.27;96.91;100936.56;5236778;28;20516;-50
2023/09/29 09:38:04;;;;;;;3.38;2.40;;;25.40;99.90;;;26.30;96.02;100945.38;5237061;28;20404;-51
2023/09/29 09:40:36;;;;;;;4.82;2.28;;;25.50;99.90;;;26.15;96.26;100938.66;5237099;28;20408;-51
2023/09/29 09:43:10;;;;;;;4.93;2.03;;;25.50;99.90;;;26.17;96.56;100944.84;5235957;28;20048;-52
2023/09/29 09:45:48;;;;;;;4.28;2.30;;;25.40;99.90;;;26.43;96.66;100953.97;5236845;28;20045;-50
2023/09/29 09:48:22;;;;;;;5.07;1.98;;;25.60;99.90;;;26.71;95.88;100952.22;5237533;28;20049;-51
2023/09/29 09:50:59;;;;;;;3.80;1.90;;;25.80;99.90;;;27.00;94.28;100950.50;5237715;28;20095;-50
2023/09/29 09:53:34;;;;;;;3.55;1.90;;;26.00;99.90;;;27.28;93.83;100943.38;5235633;28;20041;-51
2023/09/29 09:56:19;;;;;;;2.47;1.70;;;26.30;99.90;;;27.56;91.20;100942.47;5221682;28;20516;-50
2023/09/29 09:58:52;;;;;;;3.17;1.95;;;26.50;99.50;;;27.80;90.87;100944.38;5237598;28;20044;-51
2023/09/29 10:01:25;;;;;;;4.90;2.30;;;26.80;99.30;;;27.89;89.64;100939.63;5224464;28;20041;-54
2023/09/29 10:03:57;;;;;;;4.05;2.10;;;26.90;98.80;;;27.94;90.18;100943.00;5239839;28;20158;-52
2023/09/29 10:06:31;;;;;;;5.85;2.05;;;27.00;98.80;;;27.90;89.86;100954.75;5224753;28;20076;-51
2023/09/29 10:09:09;;;;;;;2.65;2.00;;;27.00;98.60;;;27.69;90.00;100949.19;5235816;28;20049;-52
2023/09/29 10:11:47;;;;;;;4.55;2.47;;;26.90;98.40;;;27.48;89.26;100949.88;5240518;28;20455;-52
2023/09/29 10:14:19;;;;;;;5.10;2.30;;;26.70;98.00;;;27.21;90.49;100941.81;5223791;28;20815;-51
2023/09/29 10:17:02;;;;;;;;;;;26.50;98.20;;;27.02;91.80;100959.34;5241429;28;20057;-53
2023/09/29 10:19:38;;;;;;;2.90;2.00;;;26.30;98.60;;;26.82;92.83;100954.59;5239468;28;19947;-50
2023/09/29 10:22:24;;;;;;;2.80;1.83;;;26.10;98.90;;;26.57;93.24;100973.16;5240808;28;20037;-51
2023/09/29 10:24:59;;;;;;;3.25;1.90;;;25.90;99.00;;;26.38;93.83;100970.06;5237354;28;20049;-52
2023/09/29 10:27:34;;;;;;;2.38;1.63;;;25.70;99.20;;;26.29;93.85;100970.34;5225528;28;20045;-56
2023/09/29 10:30:16;;;;;;;2.97;1.83;;;25.60;99.30;;;26.20;93.84;100976.78;5239958;28;20049;-52
2023/09/29 10:32:50;;;;;;;3.88;1.60;;;25.50;99.30;;;26.11;94.30;100981.53;5224336;28;20512;-51
2023/09/29 10:35:24;;;;;;;2.80;1.63;;;25.40;99.40;;;25.94;94.83;100989.97;5239881;28;20045;-51